Innovator — WDF4880 — position and weather

sailwx.info

Track history (hours):
 
Tides and Currents Weather Stations Pressure Air Temp Water Temp Dewpoint Dewpoint Depression Visibility Wind Speed Wind Dir Waves Ship Positions

Innovator

Owner: Canal Barge Company, Inc., Belle Chasse, LA. More information available from US FCC via Universal Licensing System and Coast Guard Vessel Documentation Center.

Last reported at 2018-Feb-20 09:02 UTC. Time now 2018-Feb-20 13:56 UTC.
Position N 28°24' W 096°30'.

Length 25 m.

Type: Towing. MMSI: 367456820.

Date/timePositionNaut miles runAvg speedWind from/ knotsBaromVisibWave heightAir tempDewpointWater temp
2018-Feb-20 09:02N 28°24' W 096°30'1 4.9
2018-Feb-20 08:51N 28°24' W 096°31'2 4.8
2018-Feb-20 08:29N 28°23' W 096°33'2 4.4
2018-Feb-20 07:56N 28°22' W 096°35'2 4.5
2018-Feb-20 07:25N 28°20' W 096°37'2 4.8
2018-Feb-20 06:57N 28°19' W 096°40'2 3.6
2018-Feb-20 06:30N 28°20' W 096°41'3 5.0
2018-Feb-20 05:57N 28°22' W 096°43'3 5.2
2018-Feb-20 05:26N 28°24' W 096°45'24 0.8
2018-Feb-19 00:18N 28°30' W 096°18'2 7.1
2018-Feb-18 23:59N 28°32' W 096°15'4 7.0
2018-Feb-18 23:22N 28°34' W 096°12'71 1.6
2018-Feb-17 02:08N 29°12' W 095°03'1 0.3
2018-Feb-17 00:02N 29°12' W 095°03'0 6.2
2018-Feb-16 23:59N 29°13' W 095°02'37 3.4
2018-Feb-16 12:52N 29°34' W 094°27'2 5.4
2018-Feb-16 12:29N 29°35' W 094°25'2 2.1
2018-Feb-16 11:29N 29°36' W 094°23'0 0.0
2018-Feb-16 08:26N 29°36' W 094°23'0 0.0
2018-Feb-16 07:56N 29°36' W 094°23'0 0.0
2018-Feb-16 07:29N 29°36' W 094°23'0 0.0
2018-Feb-16 06:50N 29°36' W 094°23'0 0.0
2018-Feb-16 02:56N 29°36' W 094°23'0 0.0
2018-Feb-16 02:23N 29°36' W 094°23'0 0.0
2018-Feb-16 01:59N 29°36' W 094°23'0 0.0
2018-Feb-16 01:29N 29°36' W 094°23'0 0.0
2018-Feb-15 23:34N 29°36' W 094°23'0 2.6
2018-Feb-15 23:30N 29°36' W 094°22'3 6.7
2018-Feb-15 23:00N 29°38' W 094°19'4 7.0
2018-Feb-15 22:29N 29°39' W 094°15'3 7.0
2018-Feb-15 22:00N 29°41' W 094°12'3 6.7
2018-Feb-15 21:30N 29°42' W 094°08'3 7.0
2018-Feb-15 21:00N 29°44' W 094°05'3 7.0
2018-Feb-15 20:30N 29°47' W 094°02'3 6.8
2018-Feb-15 20:00N 29°49' W 093°59'3 6.3
2018-Feb-15 19:30N 29°51' W 093°57'4 8.0
2018-Feb-15 19:00N 29°54' W 093°54'4 7.6
2018-Feb-15 18:30N 29°57' W 093°51'4 7.2
2018-Feb-15 18:00N 29°59' W 093°48'1 2.4
2018-Feb-15 17:30N 29°60' W 093°47'0 0.8
2018-Feb-15 16:59N 30°00' W 093°46'0 0.0
2018-Feb-15 16:29N 30°00' W 093°46'0 0.0
2018-Feb-15 15:59N 30°00' W 093°46'0 0.1
2018-Feb-15 15:29N 30°00' W 093°46'0 0.2
2018-Feb-15 14:59N 30°00' W 093°46'0 0.0
2018-Feb-15 14:29N 30°00' W 093°46'0 0.0
2018-Feb-15 13:59N 30°00' W 093°46'0 0.0
2018-Feb-15 13:29N 30°00' W 093°46'0 0.0
2018-Feb-15 12:59N 30°00' W 093°46'0 0.0
2018-Feb-15 12:29N 30°00' W 093°46'0 0.0
2018-Feb-15 11:59N 30°00' W 093°46'0 0.0
2018-Feb-15 11:29N 30°00' W 093°46'0 0.0
2018-Feb-15 10:59N 30°00' W 093°46'0 0.0
2018-Feb-15 10:29N 30°00' W 093°46'0 0.0
2018-Feb-15 09:59N 30°00' W 093°46'0 0.0
2018-Feb-15 09:29N 30°00' W 093°46'0 0.0
2018-Feb-15 08:59N 30°00' W 093°46'0 0.0
2018-Feb-15 08:29N 30°00' W 093°46'0 0.0
2018-Feb-15 07:59N 30°00' W 093°46'0 0.0
2018-Feb-15 07:29N 30°00' W 093°46'0 0.0
2018-Feb-15 06:59N 30°00' W 093°46'0 0.0
2018-Feb-15 06:23N 30°00' W 093°46'0 0.0
2018-Feb-15 05:59N 30°00' W 093°46'0 0.0
2018-Feb-15 05:23N 30°00' W 093°46'0 0.0
2018-Feb-15 04:59N 30°00' W 093°46'0 0.0
2018-Feb-15 04:29N 30°00' W 093°46'0 0.0
2018-Feb-15 03:59N 30°00' W 093°46'0 0.0
2018-Feb-15 03:29N 30°00' W 093°46'0 0.0
2018-Feb-15 02:56N 30°00' W 093°46'0 0.0
2018-Feb-15 02:29N 30°00' W 093°46'0 0.0
2018-Feb-15 01:59N 30°00' W 093°46'0 0.0
2018-Feb-15 01:23N 30°00' W 093°46'0 0.0
2018-Feb-15 00:59N 30°00' W 093°46'0 0.0
2018-Feb-15 00:29N 30°00' W 093°46'0 0.0
2018-Feb-14 23:56N 30°00' W 093°46'2 4.2
2018-Feb-14 23:30N 30°01' W 093°44'3 5.8
2018-Feb-14 23:00N 30°03' W 093°42'4 6.5
2018-Feb-14 22:27N 30°04' W 093°38'3 6.1
2018-Feb-14 21:59N 30°04' W 093°35'3 5.8
2018-Feb-14 21:30N 30°04' W 093°31'3 5.9
2018-Feb-14 21:00N 30°04' W 093°28'3 5.7
2018-Feb-14 20:30N 30°04' W 093°25'3 5.6
2018-Feb-14 20:00N 30°04' W 093°22'3 5.6
2018-Feb-14 19:30N 30°06' W 093°20'3 6.1
2018-Feb-14 18:59N 30°09' W 093°20'0 0.1
2018-Feb-14 18:29N 30°09' W 093°20'0 0.0
2018-Feb-14 17:59N 30°09' W 093°20'0 0.0
2018-Feb-14 17:29N 30°09' W 093°20'0 0.0
2018-Feb-14 16:59N 30°09' W 093°20'0 0.0
2018-Feb-14 16:29N 30°09' W 093°20'0 0.0
2018-Feb-14 15:59N 30°09' W 093°20'0 0.0
2018-Feb-14 15:29N 30°09' W 093°20'0 0.0
2018-Feb-14 14:59N 30°09' W 093°20'0 0.0
2018-Feb-14 14:29N 30°09' W 093°20'0 0.0
2018-Feb-14 13:59N 30°09' W 093°20'0 0.0
2018-Feb-14 13:29N 30°09' W 093°20'0 0.0
2018-Feb-14 12:59N 30°09' W 093°20'0 0.0
2018-Feb-14 12:29N 30°09' W 093°20'0 0.0
2018-Feb-14 11:59N 30°09' W 093°20'0 0.0
2018-Feb-14 11:29N 30°09' W 093°20'0 0.0
2018-Feb-14 10:59N 30°09' W 093°20'0 0.0
2018-Feb-14 10:29N 30°09' W 093°20'0 0.0
2018-Feb-14 09:59N 30°09' W 093°20'0 0.0
2018-Feb-14 09:29N 30°09' W 093°20'0 0.0
2018-Feb-14 08:59N 30°09' W 093°20'0 0.0
2018-Feb-14 08:29N 30°09' W 093°20'0 0.0
2018-Feb-14 07:59N 30°09' W 093°20'0 0.0
2018-Feb-14 07:29N 30°09' W 093°20'0 0.0
2018-Feb-14 06:59N 30°09' W 093°20'0 0.0
2018-Feb-14 06:29N 30°09' W 093°20'0 0.0
2018-Feb-14 05:59N 30°09' W 093°20'0 0.0
2018-Feb-14 05:29N 30°09' W 093°20'0 0.0
2018-Feb-14 04:59N 30°09' W 093°20'0 0.0
2018-Feb-14 04:29N 30°09' W 093°20'0 0.0
2018-Feb-14 03:59N 30°09' W 093°20'0 0.0
2018-Feb-14 03:29N 30°09' W 093°20'0 0.0
2018-Feb-14 02:59N 30°09' W 093°20'0 0.0
2018-Feb-14 02:29N 30°09' W 093°20'0 0.0
2018-Feb-14 01:59N 30°09' W 093°20'0 0.0
2018-Feb-14 01:29N 30°09' W 093°20'0 0.0
2018-Feb-14 00:59N 30°09' W 093°20'0 0.0
2018-Feb-14 00:29N 30°09' W 093°20'0 0.6
2018-Feb-14 00:00N 30°09' W 093°20'3 5.4
2018-Feb-13 23:30N 30°06' W 093°20'1 2.7
2018-Feb-13 22:59N 30°05' W 093°20'0 0.8
2018-Feb-13 22:29N 30°05' W 093°20'0 0.0
2018-Feb-13 21:59N 30°05' W 093°20'0 0.0
2018-Feb-13 21:29N 30°05' W 093°20'0 0.0
2018-Feb-13 20:59N 30°05' W 093°20'0 0.0
2018-Feb-13 20:29N 30°05' W 093°20'0 0.0
2018-Feb-13 19:59N 30°05' W 093°20'0 0.0
2018-Feb-13 19:29N 30°05' W 093°20'0 0.7
2018-Feb-13 18:58N 30°05' W 093°20'0 0.3
2018-Feb-13 18:28N 30°05' W 093°20'1 3.2
2018-Feb-13 18:00N 30°06' W 093°19'0 0.3
2018-Feb-13 17:28N 30°06' W 093°19'0 0.0
2018-Feb-13 16:58N 30°06' W 093°19'0 0.0
2018-Feb-13 16:28N 30°06' W 093°19'1 3.1
2018-Feb-13 15:59N 30°05' W 093°20'2 4.8
2018-Feb-13 15:30N 30°04' W 093°22'3 5.3
2018-Feb-13 15:00N 30°04' W 093°25'2 4.8
2018-Feb-13 14:29N 30°04' W 093°28'3 4.9
2018-Feb-13 13:57N 30°04' W 093°31'2 4.6
2018-Feb-13 13:30N 30°04' W 093°33'2 4.5
2018-Feb-13 12:59N 30°04' W 093°36'2 4.6
2018-Feb-13 12:29N 30°04' W 093°39'2 4.5
2018-Feb-13 11:59N 30°04' W 093°41'2 4.7
2018-Feb-13 11:30N 30°03' W 093°44'2 4.7
2018-Feb-13 11:00N 30°01' W 093°45'3 5.0
2018-Feb-13 10:28N 29°59' W 093°48'2 5.2
2018-Feb-13 10:00N 29°58' W 093°51'3 5.4
2018-Feb-13 09:30N 29°56' W 093°52'3 6.0
2018-Feb-13 09:00N 29°54' W 093°54'3 5.9
2018-Feb-13 08:30N 29°51' W 093°56'3 5.5
2018-Feb-13 08:00N 29°49' W 093°58'3 5.1
2018-Feb-13 07:30N 29°48' W 094°01'2 4.1
2018-Feb-13 07:00N 29°46' W 094°02'2 4.7
2018-Feb-13 06:30N 29°45' W 094°04'2 4.4
2018-Feb-13 06:00N 29°44' W 094°06'2 4.2
2018-Feb-13 05:30N 29°42' W 094°08'2 4.4
2018-Feb-13 05:00N 29°41' W 094°11'2 4.5
2018-Feb-13 04:30N 29°40' W 094°13'2 4.5
2018-Feb-13 04:00N 29°39' W 094°15'2 3.3
2018-Feb-13 03:30N 29°39' W 094°17'1 2.9
2018-Feb-13 02:59N 29°38' W 094°19'  
Track history (hours):
 
Tides and Currents Weather Stations Pressure Air Temp Water Temp Dewpoint Dewpoint Depression Visibility Wind Speed Wind Dir Waves Ship Positions

Innovator

Owner: Canal Barge Company, Inc., Belle Chasse, LA. More information available from US FCC via Universal Licensing System and Coast Guard Vessel Documentation Center.

Last reported at 2018-Feb-20 09:02 UTC. Time now 2018-Feb-20 13:56 UTC.
Position N 28°24' W 096°30'.

Length 25 m.

Type: Towing. MMSI: 367456820.

Date/timePositionNaut miles runAvg speedWind from/ knotsBaromVisibWave heightAir tempDewpointWater temp
2018-Feb-20 09:02N 28°24' W 096°30'1 4.9
2018-Feb-20 08:51N 28°24' W 096°31'2 4.8
2018-Feb-20 08:29N 28°23' W 096°33'2 4.4
2018-Feb-20 07:56N 28°22' W 096°35'2 4.5
2018-Feb-20 07:25N 28°20' W 096°37'2 4.8
2018-Feb-20 06:57N 28°19' W 096°40'2 3.6
2018-Feb-20 06:30N 28°20' W 096°41'3 5.0
2018-Feb-20 05:57N 28°22' W 096°43'3 5.2
2018-Feb-20 05:26N 28°24' W 096°45'24 0.8
2018-Feb-19 00:18N 28°30' W 096°18'2 7.1
2018-Feb-18 23:59N 28°32' W 096°15'4 7.0
2018-Feb-18 23:22N 28°34' W 096°12'71 1.6
2018-Feb-17 02:08N 29°12' W 095°03'1 0.3
2018-Feb-17 00:02N 29°12' W 095°03'0 6.2
2018-Feb-16 23:59N 29°13' W 095°02'37 3.4
2018-Feb-16 12:52N 29°34' W 094°27'2 5.4
2018-Feb-16 12:29N 29°35' W 094°25'2 2.1
2018-Feb-16 11:29N 29°36' W 094°23'0 0.0
2018-Feb-16 08:26N 29°36' W 094°23'0 0.0
2018-Feb-16 07:56N 29°36' W 094°23'0 0.0
2018-Feb-16 07:29N 29°36' W 094°23'0 0.0
2018-Feb-16 06:50N 29°36' W 094°23'0 0.0
2018-Feb-16 02:56N 29°36' W 094°23'0 0.0
2018-Feb-16 02:23N 29°36' W 094°23'0 0.0
2018-Feb-16 01:59N 29°36' W 094°23'0 0.0
2018-Feb-16 01:29N 29°36' W 094°23'0 0.0
2018-Feb-15 23:34N 29°36' W 094°23'0 2.6
2018-Feb-15 23:30N 29°36' W 094°22'3 6.7
2018-Feb-15 23:00N 29°38' W 094°19'4 7.0
2018-Feb-15 22:29N 29°39' W 094°15'3 7.0
2018-Feb-15 22:00N 29°41' W 094°12'3 6.7
2018-Feb-15 21:30N 29°42' W 094°08'3 7.0
2018-Feb-15 21:00N 29°44' W 094°05'3 7.0
2018-Feb-15 20:30N 29°47' W 094°02'3 6.8
2018-Feb-15 20:00N 29°49' W 093°59'3 6.3
2018-Feb-15 19:30N 29°51' W 093°57'4 8.0
2018-Feb-15 19:00N 29°54' W 093°54'4 7.6
2018-Feb-15 18:30N 29°57' W 093°51'4 7.2
2018-Feb-15 18:00N 29°59' W 093°48'1 2.4
2018-Feb-15 17:30N 29°60' W 093°47'0 0.8
2018-Feb-15 16:59N 30°00' W 093°46'0 0.0
2018-Feb-15 16:29N 30°00' W 093°46'0 0.0
2018-Feb-15 15:59N 30°00' W 093°46'0 0.1
2018-Feb-15 15:29N 30°00' W 093°46'0 0.2
2018-Feb-15 14:59N 30°00' W 093°46'0 0.0
2018-Feb-15 14:29N 30°00' W 093°46'0 0.0
2018-Feb-15 13:59N 30°00' W 093°46'0 0.0
2018-Feb-15 13:29N 30°00' W 093°46'0 0.0
2018-Feb-15 12:59N 30°00' W 093°46'0 0.0
2018-Feb-15 12:29N 30°00' W 093°46'0 0.0
2018-Feb-15 11:59N 30°00' W 093°46'0 0.0
2018-Feb-15 11:29N 30°00' W 093°46'0 0.0
2018-Feb-15 10:59N 30°00' W 093°46'0 0.0
2018-Feb-15 10:29N 30°00' W 093°46'0 0.0
2018-Feb-15 09:59N 30°00' W 093°46'0 0.0
2018-Feb-15 09:29N 30°00' W 093°46'0 0.0
2018-Feb-15 08:59N 30°00' W 093°46'0 0.0
2018-Feb-15 08:29N 30°00' W 093°46'0 0.0
2018-Feb-15 07:59N 30°00' W 093°46'0 0.0
2018-Feb-15 07:29N 30°00' W 093°46'0 0.0
2018-Feb-15 06:59N 30°00' W 093°46'0 0.0
2018-Feb-15 06:23N 30°00' W 093°46'0 0.0
2018-Feb-15 05:59N 30°00' W 093°46'0 0.0
2018-Feb-15 05:23N 30°00' W 093°46'0 0.0
2018-Feb-15 04:59N 30°00' W 093°46'0 0.0
2018-Feb-15 04:29N 30°00' W 093°46'0 0.0
2018-Feb-15 03:59N 30°00' W 093°46'0 0.0
2018-Feb-15 03:29N 30°00' W 093°46'0 0.0
2018-Feb-15 02:56N 30°00' W 093°46'0 0.0
2018-Feb-15 02:29N 30°00' W 093°46'0 0.0
2018-Feb-15 01:59N 30°00' W 093°46'0 0.0
2018-Feb-15 01:23N 30°00' W 093°46'0 0.0
2018-Feb-15 00:59N 30°00' W 093°46'0 0.0
2018-Feb-15 00:29N 30°00' W 093°46'0 0.0
2018-Feb-14 23:56N 30°00' W 093°46'2 4.2
2018-Feb-14 23:30N 30°01' W 093°44'3 5.8
2018-Feb-14 23:00N 30°03' W 093°42'4 6.5
2018-Feb-14 22:27N 30°04' W 093°38'3 6.1
2018-Feb-14 21:59N 30°04' W 093°35'3 5.8
2018-Feb-14 21:30N 30°04' W 093°31'3 5.9
2018-Feb-14 21:00N 30°04' W 093°28'3 5.7
2018-Feb-14 20:30N 30°04' W 093°25'3 5.6
2018-Feb-14 20:00N 30°04' W 093°22'3 5.6
2018-Feb-14 19:30N 30°06' W 093°20'3 6.1
2018-Feb-14 18:59N 30°09' W 093°20'0 0.1
2018-Feb-14 18:29N 30°09' W 093°20'0 0.0
2018-Feb-14 17:59N 30°09' W 093°20'0 0.0
2018-Feb-14 17:29N 30°09' W 093°20'0 0.0
2018-Feb-14 16:59N 30°09' W 093°20'0 0.0
2018-Feb-14 16:29N 30°09' W 093°20'0 0.0
2018-Feb-14 15:59N 30°09' W 093°20'0 0.0
2018-Feb-14 15:29N 30°09' W 093°20'0 0.0
2018-Feb-14 14:59N 30°09' W 093°20'0 0.0
2018-Feb-14 14:29N 30°09' W 093°20'0 0.0
2018-Feb-14 13:59N 30°09' W 093°20'0 0.0
2018-Feb-14 13:29N 30°09' W 093°20'0 0.0
2018-Feb-14 12:59N 30°09' W 093°20'0 0.0
2018-Feb-14 12:29N 30°09' W 093°20'0 0.0
2018-Feb-14 11:59N 30°09' W 093°20'0 0.0
2018-Feb-14 11:29N 30°09' W 093°20'0 0.0
2018-Feb-14 10:59N 30°09' W 093°20'0 0.0
2018-Feb-14 10:29N 30°09' W 093°20'0 0.0
2018-Feb-14 09:59N 30°09' W 093°20'0 0.0
2018-Feb-14 09:29N 30°09' W 093°20'0 0.0
2018-Feb-14 08:59N 30°09' W 093°20'0 0.0
2018-Feb-14 08:29N 30°09' W 093°20'0 0.0
2018-Feb-14 07:59N 30°09' W 093°20'0 0.0
2018-Feb-14 07:29N 30°09' W 093°20'0 0.0
2018-Feb-14 06:59N 30°09' W 093°20'0 0.0
2018-Feb-14 06:29N 30°09' W 093°20'0 0.0
2018-Feb-14 05:59N 30°09' W 093°20'0 0.0
2018-Feb-14 05:29N 30°09' W 093°20'0 0.0
2018-Feb-14 04:59N 30°09' W 093°20'0 0.0
2018-Feb-14 04:29N 30°09' W 093°20'0 0.0
2018-Feb-14 03:59N 30°09' W 093°20'0 0.0
2018-Feb-14 03:29N 30°09' W 093°20'0 0.0
2018-Feb-14 02:59N 30°09' W 093°20'0 0.0
2018-Feb-14 02:29N 30°09' W 093°20'0 0.0
2018-Feb-14 01:59N 30°09' W 093°20'0 0.0
2018-Feb-14 01:29N 30°09' W 093°20'0 0.0
2018-Feb-14 00:59N 30°09' W 093°20'0 0.0
2018-Feb-14 00:29N 30°09' W 093°20'0 0.6
2018-Feb-14 00:00N 30°09' W 093°20'3 5.4
2018-Feb-13 23:30N 30°06' W 093°20'1 2.7
2018-Feb-13 22:59N 30°05' W 093°20'0 0.8
2018-Feb-13 22:29N 30°05' W 093°20'0 0.0
2018-Feb-13 21:59N 30°05' W 093°20'0 0.0
2018-Feb-13 21:29N 30°05' W 093°20'0 0.0
2018-Feb-13 20:59N 30°05' W 093°20'0 0.0
2018-Feb-13 20:29N 30°05' W 093°20'0 0.0
2018-Feb-13 19:59N 30°05' W 093°20'0 0.0
2018-Feb-13 19:29N 30°05' W 093°20'0 0.7
2018-Feb-13 18:58N 30°05' W 093°20'0 0.3
2018-Feb-13 18:28N 30°05' W 093°20'1 3.2
2018-Feb-13 18:00N 30°06' W 093°19'0 0.3
2018-Feb-13 17:28N 30°06' W 093°19'0 0.0
2018-Feb-13 16:58N 30°06' W 093°19'0 0.0
2018-Feb-13 16:28N 30°06' W 093°19'1 3.1
2018-Feb-13 15:59N 30°05' W 093°20'2 4.8
2018-Feb-13 15:30N 30°04' W 093°22'3 5.3
2018-Feb-13 15:00N 30°04' W 093°25'2 4.8
2018-Feb-13 14:29N 30°04' W 093°28'3 4.9
2018-Feb-13 13:57N 30°04' W 093°31'2 4.6
2018-Feb-13 13:30N 30°04' W 093°33'2 4.5
2018-Feb-13 12:59N 30°04' W 093°36'2 4.6
2018-Feb-13 12:29N 30°04' W 093°39'2 4.5
2018-Feb-13 11:59N 30°04' W 093°41'2 4.7
2018-Feb-13 11:30N 30°03' W 093°44'2 4.7
2018-Feb-13 11:00N 30°01' W 093°45'3 5.0
2018-Feb-13 10:28N 29°59' W 093°48'2 5.2
2018-Feb-13 10:00N 29°58' W 093°51'3 5.4
2018-Feb-13 09:30N 29°56' W 093°52'3 6.0
2018-Feb-13 09:00N 29°54' W 093°54'3 5.9
2018-Feb-13 08:30N 29°51' W 093°56'3 5.5
2018-Feb-13 08:00N 29°49' W 093°58'3 5.1
2018-Feb-13 07:30N 29°48' W 094°01'2 4.1
2018-Feb-13 07:00N 29°46' W 094°02'2 4.7
2018-Feb-13 06:30N 29°45' W 094°04'2 4.4
2018-Feb-13 06:00N 29°44' W 094°06'2 4.2
2018-Feb-13 05:30N 29°42' W 094°08'2 4.4
2018-Feb-13 05:00N 29°41' W 094°11'2 4.5
2018-Feb-13 04:30N 29°40' W 094°13'2 4.5
2018-Feb-13 04:00N 29°39' W 094°15'2 3.3
2018-Feb-13 03:30N 29°39' W 094°17'1 2.9
2018-Feb-13 02:59N 29°38' W 094°19'  

Dump ship's entire track history